Latest Weather Observations for Luncheon Hill

IDT60801

Issued at 9:31 pm EDT Tuesday 27 January 2015 (issued every 30 minutes, with the page automatically refreshed every 10 minutes)

About weather observations | Map of weather stations | Latest weather observations for TAS | Other Formats
Station Details ID: 091259 Name: LUNCHEON HILL (FORESTRY) Lat: -41.15 Lon: 145.15 Height: 344.0 m
Data from the previous 72 hours. | See also: Recent months at Luncheon Hill
Date/Time
EDT
Temp
°C
App
Temp
°C
Dew
Point
Rel
Hum
%
Delta-T
°C
Wind Press
QNH
hPa
Press
MSL
hPa
Rain
since 9 am
mm
Dir
 
Spd
km/h
Gust
km/h
Spd
kts
Gust
kts
27/09:30pm 10.3 5.6 7.7 84 1.3 S 22 32 12 17 - - 0.0
27/09:00pm 10.8 6.0 7.5 80 1.6 SSW 22 33 12 18 - - 0.0
27/08:30pm 11.7 6.9 7.4 75 2.1 S 22 33 12 18 - - 0.0
27/08:00pm 12.9 7.1 7.8 71 2.6 S 28 41 15 22 - - 0.0
27/07:50pm 13.3 7.4 7.7 69 2.8 S 28 46 15 25 - - 0.0
27/07:30pm 14.0 8.2 7.8 66 3.1 S 28 41 15 22 - - 0.0
27/07:00pm 15.4 10.8 8.2 62 3.7 S 22 39 12 21 - - 0.0
27/06:32pm 15.6 9.8 7.9 60 3.9 SSW 28 46 15 25 - - 0.0
27/06:30pm 15.9 10.9 7.9 59 4.1 S 24 44 13 24 - - 0.0
27/06:00pm 17.0 12.4 8.2 56 4.6 S 22 39 12 21 - - 0.0
27/05:30pm 17.1 12.7 7.5 53 4.9 S 20 35 11 19 - - 0.0
27/05:00pm 16.9 11.5 8.1 56 4.5 SSW 26 43 14 23 - - 0.0
27/04:54pm 16.7 10.9 7.9 56 4.5 SSW 28 46 15 25 - - 0.0
27/04:30pm 15.1 9.3 7.9 62 3.7 SSW 28 41 15 22 - - 0.0
27/04:00pm 17.0 11.6 6.5 50 5.3 S 24 39 13 21 - - 0.0
27/03:30pm 16.8 13.3 7.4 54 4.8 S 15 26 8 14 - - 0.0
27/03:00pm 16.9 11.2 6.7 51 5.1 SSW 26 39 14 21 - - 0.0
27/02:30pm 16.5 12.7 7.4 55 4.6 S 17 30 9 16 - - 0.0
27/02:00pm 16.6 12.4 7.3 54 4.7 S 19 37 10 20 - - 0.0
27/01:30pm 16.6 12.4 7.3 54 4.7 S 19 37 10 20 - - 0.0
27/01:00pm 17.0 12.7 9.2 60 4.1 S 22 35 12 19 - - 0.0
27/12:30pm 16.2 11.8 7.2 55 4.5 SSW 20 32 11 17 - - 0.0
27/12:00pm 15.4 11.5 6.9 57 4.2 S 17 30 9 16 - - 0.0
27/11:30am 13.7 8.0 6.6 62 3.5 S 26 39 14 21 - - 0.0
27/11:00am 14.8 10.2 5.6 54 4.5 S 19 35 10 19 - - 0.0
27/10:30am 14.6 8.5 6.4 58 4.0 S 28 41 15 22 - - 0.0
27/10:00am 13.9 9.5 6.7 62 3.5 SSW 19 30 10 16 - - 0.0
27/09:30am 13.3 10.4 8.0 70 2.7 S 13 24 7 13 - - 0.0
27/09:00am 12.1 8.4 7.8 75 2.1 S 17 30 9 16 - - 0.0
27/08:30am 11.3 8.0 8.2 81 1.5 S 15 24 8 13 - - 0.0
27/08:00am 9.9 6.1 7.7 86 1.1 S 17 24 9 13 - - 0.0
27/07:30am 8.3 4.8 7.2 93 0.5 S 15 20 8 11 - - 0.0
27/07:00am 6.6 2.4 5.7 94 0.4 S 17 20 9 11 - - 0.0
27/06:30am 6.3 2.4 5.4 94 0.4 S 15 19 8 10 - - 0.0
27/06:00am 6.4 2.2 5.5 94 0.4 S 17 20 9 11 - - 0.0
27/05:30am 6.2 1.5 5.3 94 0.4 S 19 24 10 13 - - 0.0
27/05:00am 6.0 1.3 5.1 94 0.4 S 19 24 10 13 - - 0.0
27/04:30am 6.2 2.3 5.3 94 0.4 S 15 24 8 13 - - 0.0
27/04:00am 5.9 1.5 5.0 94 0.4 S 17 20 9 11 - - 0.0
27/03:30am 6.0 1.1 5.0 93 0.4 S 20 26 11 14 - - 0.0
27/03:00am 6.2 1.3 5.0 92 0.5 SSW 20 28 11 15 - - 0.0
27/02:30am 6.5 2.2 5.1 91 0.6 SSW 17 22 9 12 - - 0.0
27/02:00am 6.5 2.1 5.0 90 0.7 S 17 24 9 13 - - 0.0
27/01:30am 6.6 1.8 4.9 89 0.8 SSW 19 22 10 12 - - 0.0
27/01:00am 6.6 1.8 4.8 88 0.8 SSW 19 24 10 13 - - 0.0
27/12:30am 6.9 2.2 5.1 88 0.8 SSW 19 22 10 12 - - 0.0
27/12:00am 7.2 2.5 5.2 87 0.9 SSW 19 24 10 13 - - 0.0
 
Date/Time
EDT
Temp
°C
App
Temp
°C
Dew
Point
Rel
Hum
%
Delta-T
°C
Wind Press
QNH
hPa
Press
MSL
hPa
Rain
since 9 am
mm
Dir
 
Spd
km/h
Gust
km/h
Spd
kts
Gust
kts
26/11:30pm 7.1 2.3 4.9 86 1.0 SSW 19 22 10 12 - - 0.0
26/11:00pm 7.5 3.1 5.0 84 1.1 S 17 28 9 15 - - 0.0
26/10:30pm 8.0 3.1 5.1 82 1.3 SSW 20 28 11 15 - - 0.0
26/10:00pm 8.0 3.6 4.8 80 1.4 SSW 17 22 9 12 - - 0.0
26/09:30pm 8.4 3.6 4.6 77 1.7 SSW 19 22 10 12 - - 0.0
26/09:00pm 9.1 4.3 4.5 73 2.1 SSW 19 24 10 13 - - 0.0
26/08:30pm 10.1 5.1 4.7 69 2.5 SSW 20 30 11 16 - - 0.0
26/08:00pm 11.8 7.1 5.0 63 3.2 SSW 19 30 10 16 - - 0.0
26/07:30pm 12.9 7.6 5.1 59 3.7 SSW 22 35 12 19 - - 0.0
26/07:00pm 13.1 8.0 4.3 55 4.1 SW 20 32 11 17 - - 0.0
26/06:30pm 14.4 9.1 5.0 53 4.5 SSW 22 43 12 23 - - 0.0
26/06:00pm 15.0 9.9 5.8 54 4.5 SSW 22 39 12 21 - - 0.0
26/05:30pm 13.4 7.6 4.6 55 4.1 SSW 24 35 13 19 - - 0.0
26/05:00pm 13.7 8.4 5.1 56 4.1 SSW 22 35 12 19 - - 0.0
26/04:30pm 14.7 9.3 6.3 57 4.1 SSW 24 37 13 20 - - 0.0
26/04:00pm 15.8 10.6 5.4 50 5.1 SSW 22 37 12 20 - - 0.0
26/03:30pm 14.8 9.2 5.3 53 4.6 SSW 24 43 13 23 - - 0.0
26/03:00pm 14.9 10.5 6.5 57 4.1 SSW 19 32 10 17 - - 0.0
26/02:30pm 15.1 11.0 7.9 62 3.7 SSW 19 33 10 18 - - 0.0
26/02:00pm 14.3 9.5 7.4 63 3.5 SSW 22 35 12 19 - - 0.0
26/01:30pm 13.7 10.1 8.3 70 2.7 SSW 17 30 9 16 - - 0.0
26/01:00pm 14.4 10.5 7.2 62 3.6 SW 17 30 9 16 - - 0.0
26/12:30pm 13.9 9.5 7.2 64 3.3 SW 20 35 11 19 - - 0.0
26/12:00pm 13.9 9.4 7.0 63 3.4 SSW 20 32 11 17 - - 0.0
26/11:30am 13.5 8.3 7.3 66 3.1 SSW 24 35 13 19 - - 0.0
26/11:00am 12.7 9.2 7.4 70 2.6 SW 15 24 8 13 - - 0.0
26/10:30am 12.8 8.1 7.9 72 2.5 SSW 22 35 12 19 - - 0.0
26/10:00am 11.3 7.7 8.5 83 1.4 SW 17 26 9 14 - - 0.0
26/09:30am 10.8 8.1 9.1 89 0.9 SSW 13 17 7 9 - - 0.0
26/09:00am 9.8 7.0 8.7 93 0.5 SSW 13 20 7 11 - - 4.6
26/08:30am 8.8 5.9 8.0 95 0.4 SSW 13 17 7 9 - - 4.6
26/08:00am 8.2 5.2 7.6 96 0.3 SSW 13 19 7 10 - - 4.6
26/07:30am 7.6 4.1 7.3 98 0.1 SSW 15 20 8 11 - - 4.6
26/07:00am 7.2 2.7 6.8 97 0.2 SSW 20 26 11 14 - - 4.6
26/06:30am 6.6 2.9 6.2 97 0.2 SW 15 19 8 10 - - 4.6
26/06:00am 6.8 3.5 6.5 98 0.1 WSW 13 20 7 11 - - 4.4
26/05:30am 6.5 2.0 6.2 98 0.1 SSW 19 24 10 13 - - 4.4
26/05:00am 6.6 2.0 6.3 98 0.1 SSW 20 28 11 15 - - 4.4
26/04:30am 6.7 2.3 6.4 98 0.1 SSW 19 26 10 14 - - 4.4
26/04:00am 7.2 2.7 6.9 98 0.1 SW 20 28 11 15 - - 4.4
26/03:30am 6.7 2.6 6.4 98 0.1 SW 17 24 9 13 - - 4.2
26/03:00am 6.3 1.8 6.0 98 0.1 SSW 19 24 10 13 - - 4.2
26/02:30am 6.7 2.1 6.4 98 0.1 SW 20 32 11 17 - - 4.2
26/02:00am 7.0 2.1 6.7 98 0.1 SSW 22 30 12 16 - - 4.0
26/01:30am 7.0 2.4 6.6 97 0.2 SW 20 28 11 15 - - 4.0
26/01:00am 7.2 1.9 6.8 97 0.2 SW 24 39 13 21 - - 3.8
26/12:30am 7.2 3.2 6.8 97 0.2 WSW 17 24 9 13 - - 3.4
26/12:00am 7.0 3.0 6.6 97 0.2 SW 17 26 9 14 - - 3.4
 
Date/Time
EDT
Temp
°C
App
Temp
°C
Dew
Point
Rel
Hum
%
Delta-T
°C
Wind Press
QNH
hPa
Press
MSL
hPa
Rain
since 9 am
mm
Dir
 
Spd
km/h
Gust
km/h
Spd
kts
Gust
kts
25/11:30pm 7.0 3.0 6.6 97 0.2 SW 17 26 9 14 - - 3.4
25/11:00pm 6.7 2.2 6.0 95 0.3 SW 19 24 10 13 - - 3.4
25/10:30pm 7.1 2.5 5.7 91 0.6 SW 19 28 10 15 - - 3.0
25/10:00pm 7.2 3.0 5.5 89 0.8 SW 17 24 9 13 - - 2.8
25/09:30pm 7.4 2.8 5.7 89 0.8 SW 19 30 10 16 - - 2.6
25/09:00pm 7.1 2.3 5.6 90 0.7 SW 20 35 11 19 - - 2.6
25/08:30pm 7.6 2.8 5.6 87 0.9 SW 20 32 11 17 - - 2.6
25/08:00pm 8.6 3.7 5.0 78 1.6 WSW 20 35 11 19 - - 2.4
25/07:30pm 9.8 4.2 5.4 74 2.0 SW 24 41 13 22 - - 2.4
25/07:20pm 10.0 3.7 5.6 74 2.1 SW 28 48 15 26 - - 2.4
25/07:00pm 10.6 5.4 5.6 71 2.3 SW 22 43 12 23 - - 2.4
25/06:30pm 10.5 6.0 6.1 74 2.1 W 19 35 10 19 - - 2.4
25/06:15pm 10.3 4.0 5.5 72 2.2 WSW 28 56 15 30 - - 2.4
25/06:00pm 9.8 4.2 5.2 73 2.1 SW 24 39 13 21 - - 2.4
25/05:37pm 10.4 3.7 5.8 73 2.2 WSW 30 48 16 26 - - 2.4
25/05:30pm 10.0 3.2 5.2 72 2.2 WSW 30 46 16 25 - - 2.4
25/05:00pm 11.3 5.2 6.4 72 2.4 WSW 28 48 15 26 - - 2.4
25/04:45pm 11.3 5.4 7.6 78 1.8 WSW 28 57 15 31 - - 2.4
25/04:30pm 10.9 5.5 8.0 82 1.4 WSW 26 50 14 27 - - 2.4
25/04:21pm 9.9 4.8 7.5 85 1.2 WSW 24 48 13 26 - - 2.4
25/04:00pm 11.3 7.3 9.0 86 1.2 W 20 35 11 19 - - 2.4
25/03:30pm 9.1 5.0 7.9 92 0.6 SW 19 39 10 21 - - 2.4
25/03:00pm 9.9 4.2 6.8 81 1.5 W 26 43 14 23 - - 2.0
25/02:30pm 11.1 6.7 10.3 95 0.4 WSW 24 50 13 27 - - 2.0
25/02:00pm 9.6 6.5 9.0 96 0.3 SW 15 26 8 14 - - 2.0
25/01:30pm 6.8 -0.5 5.3 90 0.7 WSW 33 65 18 35 - - 1.6
25/01:23pm 7.4 0.9 4.5 82 1.3 W 28 65 15 35 - - 1.2
25/01:00pm 11.0 5.1 6.0 71 2.4 WSW 26 48 14 26 - - 0.4
25/12:30pm 11.5 6.7 7.4 76 2.0 W 22 46 12 25 - - 0.4
25/12:00pm 10.5 6.2 7.0 79 1.7 W 19 32 10 17 - - 0.4
25/11:30am 9.5 5.3 8.1 91 0.7 WSW 20 33 11 18 - - 0.4
25/11:00am 10.5 7.0 8.8 89 0.9 WSW 17 30 9 16 - - 0.4
25/10:30am 8.3 3.1 7.1 92 0.6 WSW 24 44 13 24 - - 0.4
25/10:21am 8.5 3.1 6.3 86 1.0 W 24 48 13 26 - - 0.2
25/10:00am 11.6 8.2 9.3 86 1.2 W 17 30 9 16 - - 0.0
25/09:30am 9.8 6.4 9.0 95 0.4 WSW 17 24 9 13 - - 0.0
25/09:00am 9.5 6.1 9.2 98 0.2 WSW 17 24 9 13 - - 7.6
25/08:30am 8.9 5.8 8.8 99 0.0 WSW 15 24 8 13 - - 7.2
25/08:00am 8.6 5.0 8.5 99 0.0 SW 17 26 9 14 - - 7.2
25/07:30am 8.5 4.9 8.4 99 0.0 WSW 17 28 9 15 - - 7.0
25/07:00am 8.8 5.7 8.7 99 0.0 SW 15 24 8 13 - - 7.0
25/06:30am 9.0 5.9 8.9 99 0.0 SW 15 22 8 12 - - 7.0
25/06:00am 9.3 5.9 9.2 99 0.1 SSW 17 22 9 12 - - 7.0
25/05:30am 9.4 6.0 9.3 99 0.1 SSW 17 24 9 13 - - 7.0
25/05:00am 9.4 5.5 9.3 99 0.1 SSW 20 33 11 18 - - 6.6
25/04:30am 10.1 5.9 9.9 99 0.1 SW 22 37 12 20 - - 5.6
25/04:00am 10.4 6.3 10.2 99 0.1 SW 22 35 12 19 - - 4.6
25/03:30am 11.1 7.8 10.9 99 0.1 SW 19 28 10 15 - - 4.4
25/03:00am 11.1 8.2 10.9 99 0.1 SW 17 24 9 13 - - 4.0
25/02:30am 11.2 7.9 11.0 99 0.1 W 19 33 10 18 - - 3.0
25/02:00am 12.2 9.2 12.0 99 0.1 WNW 19 24 10 13 - - 1.6
25/01:30am 12.5 9.0 12.3 99 0.1 NW 22 30 12 16 - - 1.0
25/01:00am 12.4 7.3 11.8 96 0.3 N 30 39 16 21 - - 0.6
25/12:30am 12.8 8.6 11.2 90 0.9 NNE 24 28 13 15 - - 0.0
25/12:00am 12.9 9.1 11.0 88 1.0 N 22 30 12 16 - - 0.0
 
Date/Time
EDT
Temp
°C
App
Temp
°C
Dew
Point
Rel
Hum
%
Delta-T
°C
Wind Press
QNH
hPa
Press
MSL
hPa
Rain
since 9 am
mm
Dir
 
Spd
km/h
Gust
km/h
Spd
kts
Gust
kts
24/11:30pm 13.0 8.8 11.2 89 1.0 N 24 28 13 15 - - 0.0
24/11:00pm 12.9 9.6 11.5 91 0.8 NNE 20 26 11 14 - - 0.0
24/10:30pm 13.0 9.9 11.6 91 0.8 N 19 24 10 13 - - 0.0
24/10:00pm 13.1 9.5 11.7 91 0.8 N 22 30 12 16 - - 0.0

Other Formats:

Comma delimited format used in spreadsheet applications
http://www.bom.gov.au/fwo/IDT60801/IDT60801.95956.axf

JavaScript Object Notation format (JSON) in row-major order
http://www.bom.gov.au/fwo/IDT60801/IDT60801.95956.json